»·PEaware :: N627SP L52-L88

N627SP :: L52-L88

FLIGHT INFORMATION

Flight Status: Arrived
Operator: Privately registered:
United States
More flights under this callsign
Pilot: Tom S. (23203)
Aircraft: CESSNA 172 SKYHAWK
(C172)
More flights by this aircraft type
Origin: L52 Oceano Co
United States
Destination: L88 New Cuyama
United States
More flights between these airports :: More routes between these airports
Route:
File this flight plan on PilotEdge
Remarks:
Altitude:
(Current/Filed)
2,500ft
Speed:
(Current/Filed)
100kts
Departed: 27-Jan-19 01:47 PM
Arrived: 27-Jan-19 02:09 PM
Distance/Time
Traveled:
47nm/0:22
Distance/Time
To Go:
Arrived

Flight Plot

Page will automatically refresh every two minutes.


Map Options




Map Legend


Flown Route
Filed Route
Departure Airport
Arrival Airport
Navaid (VOR, NDB)
Fix

Horizontal Profiles

Position Reports

Time Latitude Longitude Heading Altitude Ground
Speed
27-Jan-19 13:29 35.103564 -120.624817 32 4ft 0kts
27-Jan-19 13:30 35.103564 -120.624817 32 4ft 0kts
27-Jan-19 13:31 35.103564 -120.624817 32 4ft 0kts
27-Jan-19 13:32 35.103564 -120.624817 32 4ft 0kts
27-Jan-19 13:33 35.103564 -120.624817 32 4ft 0kts
27-Jan-19 13:34 35.103564 -120.624817 32 4ft 0kts
27-Jan-19 13:35 35.103564 -120.624817 32 4ft 0kts
27-Jan-19 13:36 35.103564 -120.624817 32 4ft 0kts
27-Jan-19 13:37 35.103564 -120.624817 32 4ft 0kts
27-Jan-19 13:39 35.103564 -120.624817 32 4ft 0kts
27-Jan-19 13:40 35.103564 -120.624817 32 4ft 0kts
27-Jan-19 13:41 35.103475 -120.625333 209 4ft 6kts
27-Jan-19 13:42 35.102616 -120.624406 127 4ft 7kts
27-Jan-19 13:43 35.101296 -120.622919 124 4ft 12kts
27-Jan-19 13:44 35.099583 -120.619817 120 4ft 5kts
27-Jan-19 13:45 35.099559 -120.619766 113 4ft 0kts
27-Jan-19 13:46 35.100007 -120.619619 303 4ft 10kts
27-Jan-19 13:47 35.111074 -120.630034 75 671ft 88kts
27-Jan-19 13:48 35.106218 -120.606318 96 1406ft 93kts
27-Jan-19 13:49 35.104790 -120.578249 92 2253ft 96kts
27-Jan-19 13:50 35.098630 -120.546402 113 2194ft 99kts
27-Jan-19 13:51 35.083628 -120.518220 116 2142ft 102kts
27-Jan-19 13:52 35.074798 -120.487019 108 2202ft 101kts
27-Jan-19 13:53 35.063358 -120.455827 123 2302ft 101kts
27-Jan-19 13:54 35.050023 -120.426798 97 2404ft 102kts
27-Jan-19 13:55 35.046125 -120.391149 96 2381ft 108kts
27-Jan-19 13:56 35.029914 -120.252469 99 2204ft 106kts
27-Jan-19 13:56 35.021593 -120.196911 101 2228ft 106kts
27-Jan-19 13:58 34.975565 -119.994290 106 2402ft 104kts
27-Jan-19 13:59 34.966579 -119.962007 109 2264ft 104kts
27-Jan-19 14:00 34.958911 -119.929258 102 2127ft 104kts
27-Jan-19 14:00 34.951999 -119.901696 109 2010ft 104kts
27-Jan-19 14:01 34.937530 -119.791449 101 1679ft 103kts
27-Jan-19 14:02 34.932429 -119.729843 87 1361ft 107kts
27-Jan-19 14:04 34.931409 -119.688112 117 890ft 110kts
27-Jan-19 14:04 34.918669 -119.666929 121 394ft 103kts
27-Jan-19 14:05 34.927036 -119.649687 341 375ft 75kts
27-Jan-19 14:06 34.931103 -119.665138 304 383ft 71kts
27-Jan-19 14:07 34.939223 -119.683784 299 3ft 46kts
27-Jan-19 14:08 34.942317 -119.691007 319 3ft 3kts
27-Jan-19 14:09 34.942859 -119.690676 114 4ft 12kts
27-Jan-19 14:10 34.942692 -119.689760 265 3ft 0kts
27-Jan-19 14:11 34.942692 -119.689760 265 3ft 0kts
27-Jan-19 14:12 34.942692 -119.689760 265 3ft 0kts
27-Jan-19 14:13 34.942692 -119.689760 265 3ft 0kts
27-Jan-19 14:14 34.942692 -119.689760 265 3ft 0kts
27-Jan-19 14:15 34.942692 -119.689760 265 3ft 0kts
27-Jan-19 14:16 34.942692 -119.689760 265 3ft 0kts
27-Jan-19 14:17 34.942692 -119.689760 265 3ft 0kts
27-Jan-19 14:18 34.942692 -119.689760 265 3ft 0kts
27-Jan-19 14:19 34.942692 -119.689760 265 3ft 0kts
27-Jan-19 14:20 34.942692 -119.689760 265 3ft 0kts
27-Jan-19 14:21 34.942692 -119.689760 265 3ft 0kts

Navigation Log

Ident Type
Flight plan parsing failed, navigation log unavailable